Time;durP1;ratioP1;P1;durP2;ratioP2;P2;SDS_P1;SDS_P2;PMS_P1;PMS_P2;Temp;Humidity;BMP_temperature;BMP_pressure;BME280_temperature;BME280_humidity;BME280_pressure;Samples;Min_cycle;Max_cycle;Signal;HPM_P1;HPM_P2
2023/07/25 00:00:38;;;;;;;4.17;3.30;;;15.20;33.30;;;;;;5025695;28;20551;-51
2023/07/25 00:03:05;;;;;;;6.73;3.13;;;15.20;33.30;;;;;;5021776;28;20529;-52
2023/07/25 00:05:31;;;;;;;9.63;3.27;;;15.20;33.40;;;;;;5030930;28;20459;-52
2023/07/25 00:07:58;;;;;;;14.97;3.43;;;15.10;34.00;;;;;;5019271;28;20566;-53
2023/07/25 00:10:24;;;;;;;4.10;3.40;;;15.10;34.60;;;;;;5027216;28;20498;-52
2023/07/25 00:12:54;;;;;;;4.00;3.20;;;15.10;34.30;;;;;;5027607;28;21067;-53
2023/07/25 00:15:21;;;;;;;6.03;3.53;;;15.10;34.40;;;;;;5022508;28;20543;-53
2023/07/25 00:17:48;;;;;;;10.40;3.27;;;15.10;34.20;;;;;;5030139;28;20553;-52
2023/07/25 00:20:15;;;;;;;4.40;3.37;;;15.00;34.00;;;;;;5024166;28;20573;-52
2023/07/25 00:22:41;;;;;;;5.83;3.10;;;15.00;34.00;;;;;;5030860;28;20566;-51
2023/07/25 00:25:09;;;;;;;6.50;3.90;;;15.00;33.90;;;;;;5028969;28;20550;-52
2023/07/25 00:27:36;;;;;;;13.47;3.77;;;15.00;34.00;;;;;;5021833;28;20474;-50
2023/07/25 00:30:04;;;;;;;3.27;2.97;;;15.00;34.30;;;;;;5031758;28;20964;-51
2023/07/25 00:32:31;;;;;;;7.60;3.20;;;14.90;34.40;;;;;;5022790;28;20577;-50
2023/07/25 00:34:57;;;;;;;7.87;3.20;;;14.90;35.10;;;;;;5027493;28;20502;-50
2023/07/25 00:37:24;;;;;;;8.63;3.70;;;14.90;34.80;;;;;;5030112;28;20545;-51
2023/07/25 00:39:53;;;;;;;5.00;2.90;;;14.80;35.30;;;;;;5030948;28;20547;-50
2023/07/25 00:42:20;;;;;;;6.33;3.00;;;14.80;34.10;;;;;;5026360;28;20490;-50
2023/07/25 00:44:46;;;;;;;2.60;2.50;;;14.80;35.80;;;;;;5029520;28;20550;-51
2023/07/25 00:47:15;;;;;;;18.53;3.93;;;14.80;36.00;;;;;;5027092;28;20551;-51
2023/07/25 00:49:43;;;;;;;14.73;3.10;;;14.70;36.60;;;;;;5026259;28;20463;-50
2023/07/25 00:52:10;;;;;;;3.77;3.40;;;14.70;37.10;;;;;;5023152;28;20583;-50
2023/07/25 00:54:39;;;;;;;5.90;3.23;;;14.70;37.40;;;;;;5029582;28;20897;-52
2023/07/25 00:57:06;;;;;;;7.83;3.37;;;14.70;37.60;;;;;;5028450;28;20549;-50
2023/07/25 00:59:32;;;;;;;4.47;2.97;;;14.70;37.60;;;;;;5030843;28;20960;-50
2023/07/25 01:02:00;;;;;;;4.60;2.77;;;14.70;37.80;;;;;;5035092;28;20540;-51
2023/07/25 01:04:28;;;;;;;5.07;3.17;;;14.60;38.20;;;;;;5050758;28;20471;-51
2023/07/25 01:06:54;;;;;;;3.33;2.67;;;14.60;38.50;;;;;;5029943;28;20549;-52
2023/07/25 01:09:35;;;;;;;10.30;3.50;;;14.60;38.60;;;;;;5030348;28;20455;-50
2023/07/25 01:12:02;;;;;;;4.13;3.60;;;14.50;39.30;;;;;;5030003;28;20478;-52
2023/07/25 01:14:30;;;;;;;5.60;3.00;;;14.50;39.40;;;;;;5030507;28;21038;-51
2023/07/25 01:16:57;;;;;;;13.03;3.40;;;14.50;39.80;;;;;;5028525;28;20542;-54
2023/07/25 01:19:29;;;;;;;5.57;3.23;;;14.50;39.50;;;;;;5023998;28;21032;-54
2023/07/25 01:21:56;;;;;;;7.07;3.67;;;14.50;39.70;;;;;;5027103;28;20570;-53
2023/07/25 01:24:24;;;;;;;6.20;3.10;;;14.50;39.60;;;;;;5028147;28;20537;-54
2023/07/25 01:26:51;;;;;;;5.00;3.40;;;14.50;39.50;;;;;;5034667;28;20537;-54
2023/07/25 01:29:17;;;;;;;4.73;3.77;;;14.50;39.30;;;;;;5034987;28;20875;-55
2023/07/25 01:31:44;;;;;;;13.90;4.13;;;14.60;39.30;;;;;;5032960;28;20973;-53
2023/07/25 01:34:10;;;;;;;4.27;3.97;;;14.60;39.10;;;;;;5034346;28;20526;-54
2023/07/25 01:36:37;;;;;;;4.27;3.80;;;14.60;39.30;;;;;;5034203;28;20558;-55
2023/07/25 01:39:03;;;;;;;6.17;5.47;;;14.60;39.20;;;;;;5033170;28;21016;-53
2023/07/25 01:41:31;;;;;;;7.97;4.90;;;14.60;39.10;;;;;;5034658;28;20512;-53
2023/07/25 01:43:58;;;;;;;8.30;5.23;;;14.70;39.20;;;;;;5028333;28;20537;-54
2023/07/25 01:46:24;;;;;;;6.03;4.50;;;14.70;39.30;;;;;;5034620;28;20451;-54
2023/07/25 01:48:51;;;;;;;11.00;4.53;;;14.70;39.30;;;;;;5032875;28;20557;-54
2023/07/25 01:51:17;;;;;;;5.40;4.90;;;14.70;38.80;;;;;;5033826;28;20930;-54
2023/07/25 01:53:44;;;;;;;7.50;5.50;;;14.70;39.20;;;;;;5029533;28;20550;-54
2023/07/25 01:56:10;;;;;;;5.37;4.80;;;14.70;39.20;;;;;;5034127;28;21056;-54
2023/07/25 01:58:38;;;;;;;13.10;5.80;;;14.70;39.20;;;;;;5033864;28;20538;-54
2023/07/25 02:01:04;;;;;;;5.60;5.10;;;14.70;39.20;;;;;;5029781;28;21071;-54
2023/07/25 02:03:31;;;;;;;7.63;5.00;;;14.80;39.40;;;;;;5029053;28;20481;-54
2023/07/25 02:05:57;;;;;;;7.63;4.97;;;14.80;39.20;;;;;;5029108;28;20553;-53
2023/07/25 02:08:24;;;;;;;6.50;5.00;;;14.80;39.10;;;;;;5031335;28;20546;-54
2023/07/25 02:10:50;;;;;;;6.77;4.90;;;14.80;38.90;;;;;;5031513;28;20557;-53
2023/07/25 02:13:17;;;;;;;6.53;5.30;;;14.80;39.10;;;;;;5027933;28;20941;-54
2023/07/25 02:15:45;;;;;;;6.27;4.80;;;14.80;39.00;;;;;;5021625;28;20505;-54
2023/07/25 02:18:11;;;;;;;5.03;4.60;;;14.70;39.30;;;;;;5034042;28;20481;-53
2023/07/25 02:20:38;;;;;;;6.80;4.87;;;14.80;39.50;;;;;;5030385;28;20459;-53
2023/07/25 02:23:04;;;;;;;7.00;5.57;;;14.70;39.50;;;;;;5032369;28;21096;-54
2023/07/25 02:25:31;;;;;;;14.03;4.73;;;14.80;39.70;;;;;;5032718;28;20534;-54
2023/07/25 02:27:57;;;;;;;4.93;4.10;;;14.80;39.50;;;;;;5026005;28;20557;-53
2023/07/25 02:30:24;;;;;;;7.10;4.37;;;14.80;39.10;;;;;;5032178;28;20553;-53
2023/07/25 02:32:52;;;;;;;12.33;4.73;;;14.80;39.10;;;;;;5027196;28;20578;-54
2023/07/25 02:35:18;;;;;;;8.30;5.90;;;14.80;39.00;;;;;;5029700;28;20542;-54
2023/07/25 02:37:45;;;;;;;20.00;5.10;;;14.80;39.10;;;;;;5028019;28;20569;-54
2023/07/25 02:40:11;;;;;;;16.30;5.50;;;14.80;39.10;;;;;;5033502;28;20447;-54
2023/07/25 02:42:38;;;;;;;5.70;4.93;;;14.80;40.20;;;;;;5053961;22;20537;-51
2023/07/25 02:45:05;;;;;;;12.60;5.53;;;14.80;39.00;;;;;;5035677;28;20545;-51
2023/07/25 02:47:32;;;;;;;6.83;5.70;;;14.80;41.40;;;;;;5042496;28;21002;-51
2023/07/25 02:50:00;;;;;;;12.27;6.00;;;14.80;40.60;;;;;;5050094;28;20866;-51
2023/07/25 02:52:26;;;;;;;5.40;4.53;;;14.80;40.20;;;;;;5032737;28;20486;-51
2023/07/25 02:54:53;;;;;;;9.00;5.80;;;14.80;38.30;;;;;;5031301;28;20486;-52
2023/07/25 02:57:19;;;;;;;5.87;4.87;;;14.80;40.40;;;;;;5022472;28;20482;-52
2023/07/25 02:59:46;;;;;;;7.80;5.03;;;14.80;41.40;;;;;;5027681;28;20550;-51
2023/07/25 03:02:12;;;;;;;6.27;5.00;;;14.80;41.40;;;;;;5027437;28;20562;-52
2023/07/25 03:04:39;;;;;;;8.30;4.50;;;14.80;41.40;;;;;;5030082;28;20482;-52
2023/07/25 03:07:07;;;;;;;5.47;4.27;;;14.80;41.40;;;;;;5031239;28;20573;-50
2023/07/25 03:09:33;;;;;;;8.90;4.57;;;14.70;44.70;;;;;;5028708;28;20894;-53
2023/07/25 03:12:00;;;;;;;5.70;4.53;;;14.70;45.50;;;;;;5027029;28;20613;-51
2023/07/25 03:14:26;;;;;;;9.27;5.07;;;14.70;46.30;;;;;;5028393;28;20550;-51
2023/07/25 03:16:53;;;;;;;12.97;5.03;;;14.70;45.90;;;;;;5028670;28;20468;-52
2023/07/25 03:19:19;;;;;;;6.33;4.57;;;14.80;45.70;;;;;;5028910;28;20547;-51
2023/07/25 03:21:46;;;;;;;4.73;4.13;;;14.70;45.70;;;;;;5020738;28;21020;-51
2023/07/25 03:24:14;;;;;;;4.50;4.10;;;14.80;44.50;;;;;;5022136;28;20537;-52
2023/07/25 03:26:40;;;;;;;4.17;3.77;;;14.70;48.10;;;;;;5022350;28;21056;-51
2023/07/25 03:29:07;;;;;;;8.07;4.20;;;14.70;48.50;;;;;;5030082;28;20558;-52
2023/07/25 03:31:33;;;;;;;8.40;4.40;;;14.70;50.10;;;;;;5029607;28;20995;-52
2023/07/25 03:34:00;;;;;;;10.13;4.30;;;14.70;49.80;;;;;;5025048;28;20574;-51
2023/07/25 03:36:26;;;;;;;6.33;4.60;;;14.70;48.60;;;;;;5030985;28;20550;-52
2023/07/25 03:38:53;;;;;;;6.00;4.70;;;14.70;49.40;;;;;;5027682;28;21002;-52
2023/07/25 03:41:21;;;;;;;13.17;4.67;;;14.80;48.10;;;;;;5029980;28;20581;-52
2023/07/25 03:43:47;;;;;;;5.63;4.17;;;14.70;48.00;;;;;;5029399;28;20962;-52
2023/07/25 03:46:14;;;;;;;10.50;4.17;;;14.70;47.10;;;;;;5023846;28;20495;-52
2023/07/25 03:48:40;;;;;;;20.50;5.30;;;14.70;49.60;;;;;;5027856;28;20479;-51
2023/07/25 03:51:07;;;;;;;6.17;4.30;;;14.70;50.30;;;;;;5027991;28;20577;-52
2023/07/25 03:53:33;;;;;;;8.50;4.30;;;14.70;49.60;;;;;;5023816;28;20611;-52
2023/07/25 03:56:00;;;;;;;10.17;4.27;;;14.70;49.30;;;;;;5021035;28;20492;-51
2023/07/25 03:58:28;;;;;;;11.53;4.57;;;14.70;46.80;;;;;;5021443;28;20499;-51
2023/07/25 04:00:55;;;;;;;6.30;3.90;;;14.70;47.70;;;;;;5029261;28;20458;-52
2023/07/25 04:03:21;;;;;;;8.77;4.30;;;14.70;47.70;;;;;;5031243;28;20479;-51
2023/07/25 04:05:48;;;;;;;11.57;3.90;;;14.70;46.50;;;;;;5030309;28;20928;-51
2023/07/25 04:08:14;;;;;;;7.53;3.87;;;14.70;47.30;;;;;;5022317;28;20547;-51
2023/07/25 04:10:41;;;;;;;15.43;4.20;;;14.70;46.90;;;;;;5026210;28;20490;-52
2023/07/25 04:13:07;;;;;;;12.10;4.20;;;14.70;46.90;;;;;;5022802;28;21086;-51
2023/07/25 04:15:35;;;;;;;11.90;4.40;;;14.70;47.60;;;;;;5023240;28;20494;-52
2023/07/25 04:18:02;;;;;;;9.70;4.10;;;14.70;46.10;;;;;;5029629;28;20510;-52
2023/07/25 04:20:29;;;;;;;7.87;4.67;;;14.70;48.90;;;;;;5021872;28;20462;-52
2023/07/25 04:22:55;;;;;;;5.93;4.00;;;14.70;51.30;;;;;;5018495;28;20495;-52
2023/07/25 04:25:23;;;;;;;3.90;3.50;;;14.70;50.10;;;;;;5026047;28;20550;-51
2023/07/25 04:27:49;;;;;;;7.23;3.83;;;14.70;49.90;;;;;;5031463;28;20948;-51
2023/07/25 04:30:16;;;;;;;6.23;3.60;;;14.70;51.60;;;;;;5028882;28;20957;-51
2023/07/25 04:32:44;;;;;;;8.80;4.43;;;14.80;50.50;;;;;;5031391;28;20566;-52
2023/07/25 04:35:10;;;;;;;9.23;3.83;;;14.80;51.20;;;;;;5027712;28;20502;-50
2023/07/25 04:37:37;;;;;;;8.67;4.10;;;14.80;52.70;;;;;;5027164;28;20471;-51
2023/07/25 04:40:04;;;;;;;10.07;4.30;;;14.80;52.60;;;;;;5027580;28;21790;-51
2023/07/25 04:42:31;;;;;;;5.77;3.40;;;14.80;53.10;;;;;;5027687;28;20573;-52
2023/07/25 04:44:57;;;;;;;5.40;3.53;;;14.80;55.20;;;;;;5030549;28;20533;-50
2023/07/25 04:47:24;;;;;;;6.67;3.90;;;14.80;54.00;;;;;;5021818;28;20538;-51
2023/07/25 04:49:51;;;;;;;8.13;4.57;;;14.80;54.00;;;;;;5025119;28;20542;-52
2023/07/25 04:52:18;;;;;;;9.43;4.43;;;14.90;55.30;;;;;;5027133;28;20569;-51
2023/07/25 04:54:44;;;;;;;5.63;3.30;;;14.90;54.60;;;;;;5027698;28;20549;-51
2023/07/25 04:57:11;;;;;;;8.07;4.07;;;14.90;54.40;;;;;;5028975;28;20899;-51
2023/07/25 04:59:37;;;;;;;5.10;3.83;;;14.90;54.20;;;;;;5025121;28;20951;-52
2023/07/25 05:02:04;;;;;;;11.23;4.13;;;14.90;55.50;;;;;;5028874;28;20565;-52
2023/07/25 05:04:31;;;;;;;6.20;3.70;;;14.90;55.00;;;;;;5027316;28;20904;-52
2023/07/25 05:06:59;;;;;;;11.13;3.53;;;14.90;56.80;;;;;;5025804;28;20463;-52
2023/07/25 05:09:25;;;;;;;5.73;4.00;;;14.90;59.70;;;;;;5029548;28;20494;-52
2023/07/25 05:11:52;;;;;;;6.80;3.60;;;15.00;60.20;;;;;;5026631;28;20894;-52
2023/07/25 05:14:18;;;;;;;6.60;3.53;;;15.00;59.90;;;;;;5029552;28;20823;-52
2023/07/25 05:16:45;;;;;;;18.83;4.43;;;15.10;58.60;;;;;;5030660;28;20545;-51
2023/07/25 05:19:12;;;;;;;6.60;3.40;;;15.10;65.60;;;;;;5034424;28;20552;-51
2023/07/25 05:21:38;;;;;;;8.40;2.77;;;15.10;66.40;;;;;;5035090;28;20661;-52
2023/07/25 05:24:06;;;;;;;5.50;3.40;;;15.10;75.00;;;;;;5030360;28;20486;-52
2023/07/25 05:26:33;;;;;;;5.87;2.50;;;15.10;80.50;;;;;;5034834;28;20482;-51
2023/07/25 05:28:59;;;;;;;29.83;4.07;;;15.10;80.80;;;;;;5036291;28;20529;-51
2023/07/25 05:31:26;;;;;;;20.60;3.43;;;15.10;82.70;;;;;;5033031;28;20565;-51
2023/07/25 05:33:52;;;;;;;10.00;2.83;;;15.10;81.10;;;;;;5030149;28;21094;-51
2023/07/25 05:36:19;;;;;;;6.93;3.27;;;15.10;81.50;;;;;;5024519;28;21006;-51
2023/07/25 05:38:45;;;;;;;5.00;2.90;;;15.10;85.00;;;;;;5029408;28;20557;-51
2023/07/25 05:41:13;;;;;;;4.17;2.83;;;15.10;84.60;;;;;;5030721;28;20572;-51
2023/07/25 05:43:40;;;;;;;8.90;3.00;;;15.10;89.90;;;;;;5030288;28;20906;-52
2023/07/25 05:46:07;;;;;;;7.63;2.67;;;15.20;89.80;;;;;;5025573;28;20952;-52
2023/07/25 05:48:34;;;;;;;3.00;2.30;;;15.20;99.90;;;;;;5034246;28;21006;-51
2023/07/25 05:51:00;;;;;;;4.00;2.47;;;15.20;99.90;;;;;;5024105;28;20520;-51
2023/07/25 05:53:27;;;;;;;6.17;2.40;;;15.20;99.90;;;;;;5023091;28;20854;-52
2023/07/25 05:55:53;;;;;;;7.43;2.73;;;15.30;99.90;;;;;;5023326;28;20569;-52
2023/07/25 05:58:21;;;;;;;4.37;2.57;;;15.30;99.90;;;;;;5028430;28;20906;-52
2023/07/25 06:00:48;;;;;;;10.00;2.50;;;15.30;99.90;;;;;;5027404;28;20550;-51
2023/07/25 06:03:16;;;;;;;4.83;2.63;;;15.30;99.90;;;;;;5028045;28;20553;-52
2023/07/25 06:05:43;;;;;;;4.13;2.03;;;15.40;99.90;;;;;;5032130;28;20458;-51
2023/07/25 06:08:10;;;;;;;10.23;2.50;;;15.30;1.40;;;;;;5018439;28;20498;-52
2023/07/25 06:10:37;;;;;;;8.17;2.77;;;15.40;99.90;;;;;;5023551;28;20467;-51
2023/07/25 06:13:05;;;;;;;7.27;2.60;;;15.50;99.90;;;;;;5023187;28;20569;-51
2023/07/25 06:15:34;;;;;;;11.00;2.60;;;15.50;99.90;;;;;;5023204;28;20469;-52
2023/07/25 06:18:00;;;;;;;6.77;2.40;;;15.50;99.90;;;;;;5027022;28;20517;-52
2023/07/25 06:20:27;;;;;;;6.30;2.03;;;15.60;99.90;;;;;;5022746;28;20888;-52
2023/07/25 06:22:53;;;;;;;12.20;2.73;;;15.50;99.90;;;;;;5031231;28;20513;-52
2023/07/25 06:25:20;;;;;;;6.40;2.40;;;15.60;99.90;;;;;;5027332;28;20470;-52
2023/07/25 06:27:47;;;;;;;10.33;2.90;;;15.60;99.90;;;;;;5029995;28;20470;-52
2023/07/25 06:30:14;;;;;;;11.90;3.67;;;15.60;99.90;;;;;;5027599;28;20527;-51
2023/07/25 06:32:42;;;;;;;2.47;2.20;;;15.70;99.90;;;;;;5027098;28;20526;-52
2023/07/25 06:35:09;;;;;;;5.80;2.63;;;15.70;99.90;;;;;;5022699;28;20482;-52
2023/07/25 06:37:37;;;;;;;6.60;2.30;;;15.70;99.90;;;;;;5030597;28;20550;-51
2023/07/25 06:40:04;;;;;;;8.37;1.90;;;15.80;99.90;;;;;;5030670;28;20490;-52
2023/07/25 06:42:31;;;;;;;6.40;2.23;;;15.90;99.90;;;;;;5031313;28;20870;-52
2023/07/25 06:44:58;;;;;;;6.73;2.23;;;15.90;99.90;;;;;;5026246;28;20451;-52
2023/07/25 06:47:25;;;;;;;18.27;2.83;;;15.90;99.90;;;;;;5027527;28;20546;-52
2023/07/25 06:49:53;;;;;;;13.37;2.47;;;16.00;99.90;;;;;;5028587;28;20495;-52
2023/07/25 06:52:19;;;;;;;6.43;2.50;;;16.00;99.90;;;;;;5027211;28;20515;-52
2023/07/25 06:54:46;;;;;;;9.77;2.00;;;16.10;99.90;;;;;;5026249;28;20567;-52
2023/07/25 06:57:12;;;;;;;4.83;2.33;;;16.10;99.90;;;;;;5031015;28;20513;-52
2023/07/25 06:59:39;;;;;;;15.67;2.33;;;16.10;99.90;;;;;;5029349;28;20554;-52
2023/07/25 07:02:06;;;;;;;6.73;1.90;;;16.10;23.30;;;;;;5024260;28;20510;-52
2023/07/25 07:04:32;;;;;;;9.03;2.10;;;16.00;74.10;;;;;;5029362;28;20547;-52
2023/07/25 07:07:00;;;;;;;6.50;2.00;;;16.00;25.00;;;;;;5029248;28;20486;-51
2023/07/25 07:09:27;;;;;;;9.30;2.83;;;16.00;99.90;;;;;;5025462;28;20493;-52
2023/07/25 07:11:54;;;;;;;5.20;2.10;;;16.10;24.30;;;;;;5030800;28;21063;-52
2023/07/25 07:14:20;;;;;;;5.73;2.00;;;16.30;95.60;;;;;;5031471;28;20525;-52
2023/07/25 07:16:47;;;;;;;7.90;2.00;;;16.40;33.90;;;;;;5023918;28;20562;-52
2023/07/25 07:19:14;;;;;;;10.10;2.40;;;16.40;99.90;;;;;;5027563;28;20908;-52
2023/07/25 07:21:40;;;;;;;6.50;2.03;;;16.40;40.00;;;;;;5030882;28;20573;-51
2023/07/25 07:24:08;;;;;;;5.67;1.90;;;16.50;72.40;;;;;;5027631;28;20973;-52
2023/07/25 07:26:35;;;;;;;6.53;2.10;;;16.50;47.20;;;;;;5030877;28;20597;-52
2023/07/25 07:29:01;;;;;;;4.47;1.60;;;16.50;30.00;;;;;;5030548;28;20525;-51
2023/07/25 07:31:28;;;;;;;5.13;2.30;;;16.60;27.20;;;;;;5023059;28;20549;-53
2023/07/25 07:34:09;;;;;;;8.17;2.80;;;16.70;33.60;;;;;;5025815;28;20573;-52
2023/07/25 07:36:36;;;;;;;7.60;1.90;;;16.70;60.00;;;;;;5029509;28;20965;-51
2023/07/25 07:39:02;;;;;;;7.50;1.80;;;16.80;63.50;;;;;;5027341;28;20593;-52
2023/07/25 07:41:30;;;;;;;7.87;2.20;;;16.80;48.50;;;;;;5030147;28;20529;-53
2023/07/25 07:43:56;;;;;;;4.97;1.90;;;16.90;65.30;;;;;;5025605;28;20555;-50
2023/07/25 07:46:23;;;;;;;8.73;2.53;;;16.90;70.90;;;;;;5021411;28;21175;-52
2023/07/25 07:48:49;;;;;;;7.27;2.40;;;17.10;61.50;;;;;;5024625;28;20557;-51
2023/07/25 07:51:16;;;;;;;5.27;2.40;;;17.10;58.40;;;;;;5029148;28;20566;-51
2023/07/25 07:53:43;;;;;;;6.37;2.40;;;17.10;95.90;;;;;;5027639;28;20598;-52
2023/07/25 07:56:10;;;;;;;10.80;2.30;;;17.10;86.70;;;;;;5028632;28;21046;-52
2023/07/25 07:58:38;;;;;;;5.40;2.40;;;17.10;78.30;;;;;;5024572;28;21014;-52
2023/07/25 08:01:13;;;;;;;13.40;2.73;;;17.10;75.50;;;;;;5026840;28;20561;-52
2023/07/25 08:03:39;;;;;;;15.47;2.50;;;17.20;63.90;;;;;;5022523;28;20549;-51
2023/07/25 08:06:06;;;;;;;8.80;2.53;;;17.20;62.80;;;;;;5026859;28;20558;-52
2023/07/25 08:08:32;;;;;;;3.90;2.63;;;17.10;51.20;;;;;;5027785;28;20491;-52
2023/07/25 08:10:59;;;;;;;6.37;2.30;;;17.20;52.60;;;;;;5027052;28;20978;-52
2023/07/25 08:13:25;;;;;;;1.80;1.67;;;17.20;75.00;;;;;;5026954;28;20558;-51
2023/07/25 08:15:53;;;;;;;4.33;2.00;;;17.30;87.40;;;;;;5027239;28;20542;-51
2023/07/25 08:18:20;;;;;;;5.13;2.67;;;17.30;99.90;;;;;;5024743;28;20459;-52
2023/07/25 08:20:46;;;;;;;8.37;2.73;;;17.40;97.10;;;;;;5027928;28;20502;-52
2023/07/25 08:23:13;;;;;;;10.73;2.67;;;17.60;99.90;;;;;;5027779;28;20486;-52
2023/07/25 08:25:40;;;;;;;6.77;2.53;;;17.70;86.20;;;;;;5029302;28;20516;-52
2023/07/25 08:28:07;;;;;;;8.53;2.43;;;17.70;99.90;;;;;;5028294;28;20539;-51
2023/07/25 08:30:33;;;;;;;3.13;1.73;;;17.70;99.90;;;;;;5025012;28;20469;-51
2023/07/25 08:33:01;;;;;;;5.80;2.10;;;17.70;99.90;;;;;;5025061;28;20589;-52
2023/07/25 08:35:28;;;;;;;8.03;2.20;;;17.90;99.90;;;;;;5030865;28;20518;-52
2023/07/25 08:37:55;;;;;;;11.53;2.63;;;18.00;99.90;;;;;;5034918;28;20545;-56
2023/07/25 08:40:21;;;;;;;5.50;2.10;;;17.90;99.90;;;;;;5033540;28;20499;-52
2023/07/25 08:42:50;;;;;;;4.90;1.80;;;18.00;1.40;;;;;;5034675;28;20569;-52
2023/07/25 08:45:19;;;;;;;15.43;2.13;;;18.10;99.90;;;;;;5032738;28;20546;-51
2023/07/25 08:47:46;;;;;;;4.90;2.33;;;18.30;99.90;;;;;;5033512;28;20542;-52
2023/07/25 08:50:16;;;;;;;4.60;1.70;;;18.30;99.90;;;;;;5034800;28;20490;-51
2023/07/25 08:52:49;;;;;;;9.63;2.17;;;18.20;99.90;;;;;;5031911;28;20544;-51
2023/07/25 08:55:16;;;;;;;6.30;1.70;;;18.40;99.90;;;;;;5033210;28;20569;-50
2023/07/25 08:57:43;;;;;;;9.93;2.00;;;18.60;99.90;;;;;;5032850;28;20494;-51
2023/07/25 09:00:13;;;;;;;6.07;2.40;;;18.70;99.90;;;;;;5028240;28;20467;-50
2023/07/25 09:02:40;;;;;;;6.20;1.90;;;18.90;34.60;;;;;;5025621;28;21063;-50
2023/07/25 09:05:07;;;;;;;3.27;1.50;;;19.00;41.80;;;;;;5031707;28;20459;-51
2023/07/25 09:07:35;;;;;;;3.97;2.00;;;19.10;64.50;;;;;;5030278;28;20494;-51
2023/07/25 09:10:02;;;;;;;9.43;2.10;;;19.00;52.00;;;;;;5029819;28;20554;-51
2023/07/25 09:12:29;;;;;;;4.13;1.90;;;19.30;43.00;;;;;;5035224;28;20565;-50
2023/07/25 09:14:56;;;;;;;12.30;2.57;;;19.80;61.70;;;;;;5029945;28;20607;-50
2023/07/25 09:17:22;;;;;;;4.27;1.77;;;19.80;54.40;;;;;;5030260;28;20454;-50
2023/07/25 09:19:49;;;;;;;3.27;2.03;;;19.50;73.30;;;;;;5035763;28;20540;-50
2023/07/25 09:22:26;;;;;;;5.87;1.90;;;19.20;80.10;;;;;;5030660;28;20566;-50
2023/07/25 09:24:54;;;;;;;6.77;2.10;;;19.30;69.50;;;;;;5034984;28;20534;-50
2023/07/25 09:27:21;;;;;;;5.80;2.00;;;19.40;88.20;;;;;;5034965;28;20558;-50
2023/07/25 09:29:51;;;;;;;6.33;1.90;;;19.60;99.90;;;;;;5035523;28;20953;-50
2023/07/25 09:32:23;;;;;;;6.03;1.67;;;19.90;99.90;;;;;;5036388;28;20479;-50
2023/07/25 09:34:56;;;;;;;4.40;1.83;;;20.20;99.90;;;;;;5035606;28;20486;-51
2023/07/25 09:37:23;;;;;;;2.40;1.63;;;20.30;99.90;;;;;;5025695;28;20898;-52
2023/07/25 09:39:49;;;;;;;4.90;1.77;;;19.90;99.90;;;;;;5034166;28;20501;-52
2023/07/25 09:42:21;;;;;;;7.97;2.13;;;19.70;99.90;;;;;;5037062;28;20517;-51
2023/07/25 09:44:48;;;;;;;8.33;2.60;;;19.60;99.90;;;;;;5032255;28;20497;-51
2023/07/25 09:47:15;;;;;;;7.07;1.80;;;19.30;99.90;;;;;;5029922;28;20487;-51
2023/07/25 09:49:48;;;;;;;4.70;1.70;;;19.20;99.90;;;;;;5029155;28;20540;-51
2023/07/25 09:52:15;;;;;;;3.67;1.50;;;19.30;99.90;;;;;;5032635;28;20490;-52
2023/07/25 09:54:41;;;;;;;5.90;2.20;;;19.70;99.90;;;;;;5033148;28;20517;-53
2023/07/25 09:57:08;;;;;;;5.27;1.67;;;19.90;99.90;;;;;;5031392;28;20541;-52
2023/07/25 09:59:36;;;;;;;2.13;1.70;;;20.10;99.90;;;;;;5032182;28;20498;-51
2023/07/25 10:02:04;;;;;;;6.13;1.87;;;20.40;99.90;;;;;;5032137;28;20609;-52
2023/07/25 10:04:32;;;;;;;5.57;2.07;;;20.20;99.90;;;;;;5021383;28;20464;-52
2023/07/25 10:07:00;;;;;;;5.70;1.73;;;20.00;99.90;;;;;;5031448;28;20550;-52
2023/07/25 10:09:27;;;;;;;10.03;2.20;;;19.60;99.90;;;;;;5033482;28;20513;-52
2023/07/25 10:11:54;;;;;;;3.83;2.10;;;19.30;99.90;;;;;;5030435;28;20569;-51
2023/07/25 10:14:21;;;;;;;4.50;1.23;;;19.30;99.90;;;;;;5027020;28;20576;-52
2023/07/25 10:16:49;;;;;;;5.90;1.60;;;19.20;99.90;;;;;;5022294;28;20467;-51
2023/07/25 10:19:16;;;;;;;4.00;1.53;;;19.10;99.90;;;;;;5033557;28;20968;-52
2023/07/25 10:21:48;;;;;;;2.43;1.73;;;19.10;99.90;;;;;;5022620;28;20510;-52
2023/07/25 10:24:15;;;;;;;5.60;1.43;;;19.00;99.90;;;;;;5029711;28;20910;-51
2023/07/25 10:26:55;;;;;;;4.00;1.80;;;19.10;99.90;;;;;;5033907;28;20446;-52
2023/07/25 10:29:39;;;;;;;3.83;1.73;;;19.10;99.90;;;;;;5030345;28;20458;-52
2023/07/25 10:32:08;;;;;;;3.33;1.97;;;19.30;99.90;;;;;;5032526;28;20474;-51
2023/07/25 10:34:44;;;;;;;7.20;1.67;;;19.40;99.90;;;;;;5032609;28;20483;-52
2023/07/25 10:37:25;;;;;;;4.00;1.80;;;19.60;99.90;;;;;;5025227;28;21182;-52
2023/07/25 10:40:10;;;;;;;8.93;1.63;;;19.60;99.90;;;;;;5033267;28;20538;-51
2023/07/25 10:42:45;;;;;;;8.60;1.63;;;20.00;99.90;;;;;;5032129;28;20498;-52
2023/07/25 10:45:47;;;;;;;4.87;1.67;;;21.10;99.90;;;;;;5030476;28;20454;-52
2023/07/25 10:48:45;;;;;;;2.43;1.03;;;22.80;99.90;;;;;;5026899;28;20463;-51
2023/07/25 10:51:13;;;;;;;4.33;1.40;;;23.50;99.90;;;;;;5028683;28;20480;-51
2023/07/25 10:53:40;;;;;;;2.73;1.60;;;22.30;99.90;;;;;;5020602;28;20464;-52
2023/07/25 10:56:17;;;;;;;2.13;1.10;;;21.50;99.90;;;;;;5030053;28;20572;-52
2023/07/25 10:59:04;;;;;;;4.70;1.60;;;21.40;99.90;;;;;;5030758;28;20516;-52
2023/07/25 11:01:44;;;;;;;5.63;1.50;;;21.80;99.90;;;;;;5030166;28;20582;-52
2023/07/25 11:04:26;;;;;;;5.03;1.93;;;22.10;99.90;;;;;;5031946;28;20459;-51
2023/07/25 11:06:54;;;;;;;2.47;1.00;;;21.40;99.90;;;;;;5031063;28;20494;-52
2023/07/25 11:09:21;;;;;;;2.90;1.73;;;20.70;99.90;;;;;;5026265;28;20956;-51
2023/07/25 11:11:49;;;;;;;6.43;1.83;;;20.30;99.90;;;;;;5029611;28;20471;-51
2023/07/25 11:14:17;;;;;;;6.17;1.73;;;20.10;99.90;;;;;;5028320;28;20530;-51
2023/07/25 11:16:46;;;;;;;6.63;1.80;;;20.00;99.90;;;;;;5033024;28;20832;-52
2023/07/25 11:19:14;;;;;;;2.90;1.53;;;20.00;99.90;;;;;;5030688;28;20545;-51
2023/07/25 11:21:43;;;;;;;4.90;1.70;;;20.30;99.90;;;;;;5032407;28;20566;-52
2023/07/25 11:24:11;;;;;;;2.13;1.50;;;20.90;99.90;;;;;;5028328;28;20467;-51
2023/07/25 11:26:37;;;;;;;2.80;1.93;;;21.40;99.90;;;;;;5030229;28;20552;-52
2023/07/25 11:29:05;;;;;;;7.47;2.20;;;21.60;99.90;;;;;;5030225;28;21109;-51
2023/07/25 11:31:32;;;;;;;9.43;2.10;;;21.80;99.90;;;;;;5014862;28;20562;-51
2023/07/25 11:34:11;;;;;;;5.50;2.00;;;21.80;99.90;;;;;;5013424;28;20475;-51
2023/07/25 11:36:39;;;;;;;11.33;1.60;;;21.50;99.90;;;;;;5028590;28;20562;-51
2023/07/25 11:39:08;;;;;;;7.30;1.10;;;21.10;99.90;;;;;;5031987;28;20478;-52
2023/07/25 11:41:35;;;;;;;2.20;1.60;;;20.30;99.90;;;;;;5030040;28;20526;-52
2023/07/25 11:44:05;;;;;;;4.43;1.73;;;20.30;99.90;;;;;;5026904;28;20894;-51
2023/07/25 11:46:32;;;;;;;6.53;1.50;;;20.10;99.90;;;;;;5029361;28;20869;-52
2023/07/25 11:48:59;;;;;;;4.57;1.80;;;19.80;99.90;;;;;;5031018;28;20537;-52
2023/07/25 11:51:26;;;;;;;1.90;1.80;;;19.60;99.90;;;;;;5025438;28;20547;-51
2023/07/25 11:53:53;;;;;;;2.30;1.50;;;19.40;99.90;;;;;;5029282;28;20983;-51
2023/07/25 11:56:21;;;;;;;5.33;1.80;;;19.30;99.90;;;;;;5024762;28;20571;-51
2023/07/25 11:58:49;;;;;;;4.73;2.63;;;19.20;99.90;;;;;;5028859;28;20554;-51
2023/07/25 12:01:16;;;;;;;19.20;2.07;;;19.10;99.90;;;;;;5027111;28;20479;-51
2023/07/25 12:03:48;;;;;;;5.37;1.27;;;19.10;99.90;;;;;;5028293;28;20870;-51
2023/07/25 12:06:14;;;;;;;7.90;1.37;;;19.20;99.90;;;;;;5030730;28;20831;-51
2023/07/25 12:08:43;;;;;;;8.20;1.53;;;19.40;99.90;;;;;;5027143;28;20991;-52
2023/07/25 12:11:11;;;;;;;4.13;1.73;;;19.60;99.90;;;;;;5025961;28;20570;-52
2023/07/25 12:13:47;;;;;;;10.70;1.93;;;19.70;99.90;;;;;;5028546;28;20976;-51
2023/07/25 12:16:28;;;;;;;3.27;1.63;;;19.60;99.90;;;;;;5022895;28;20992;-51
2023/07/25 12:18:56;;;;;;;3.40;1.80;;;19.70;99.90;;;;;;5027974;28;20472;-51
2023/07/25 12:21:26;;;;;;;1.80;1.50;;;19.60;99.90;;;;;;5020903;28;20482;-52
2023/07/25 12:23:53;;;;;;;4.30;1.23;;;19.60;99.90;;;;;;5031537;28;20451;-51
2023/07/25 12:26:21;;;;;;;3.93;1.50;;;19.60;99.90;;;;;;5026478;28;21028;-52
2023/07/25 12:28:50;;;;;;;5.37;1.60;;;19.60;99.90;;;;;;5028822;28;20976;-51
2023/07/25 12:31:17;;;;;;;3.13;1.80;;;19.70;99.90;;;;;;5022469;28;20507;-52
2023/07/25 12:33:45;;;;;;;3.80;1.40;;;19.80;99.90;;;;;;5018118;28;20471;-51
2023/07/25 12:36:12;;;;;;;4.93;1.73;;;19.90;99.90;;;;;;5020690;28;20569;-52
2023/07/25 12:38:39;;;;;;;4.07;1.60;;;20.00;99.90;;;;;;5024075;28;20505;-52
2023/07/25 12:41:06;;;;;;;6.60;1.40;;;20.20;99.90;;;;;;5019804;28;20499;-52
2023/07/25 12:43:32;;;;;;;4.07;2.47;;;20.50;99.90;;;;;;5020868;28;20547;-52
2023/07/25 12:46:01;;;;;;;6.30;1.93;;;21.20;99.90;;;;;;5026695;28;20490;-52
2023/07/25 12:48:27;;;;;;;1.70;1.10;;;22.10;99.90;;;;;;5031435;28;21025;-52